Time;durP1;ratioP1;P1;durP2;ratioP2;P2;SDS_P1;SDS_P2;PMS_P1;PMS_P2;Temp;Humidity;BMP_temperature;BMP_pressure;BME280_temperature;BME280_humidity;BME280_pressure;Samples;Min_cycle;Max_cycle;Signal;HPM_P1;HPM_P2
2024/01/19 00:00:09;;;;;;;1.23;0.93;;;;;;;;;;4740273;30;20064;-94
2024/01/19 00:02:35;;;;;;;0.85;0.70;;;;;;;;;;4727898;30;20118;-93
2024/01/19 00:05:03;;;;;;;3.85;0.75;;;;;;;;;;4719469;30;20126;-94
2024/01/19 00:07:29;;;;;;;0.52;0.52;;;;;;;;;;4719878;30;20060;-93
2024/01/19 00:09:55;;;;;;;2.65;0.80;;;;;;;;;;4719894;30;20065;-92
2024/01/19 00:12:22;;;;;;;3.95;0.93;;;;;;;;;;4723617;30;20145;-93
2024/01/19 00:14:48;;;;;;;5.13;1.00;;;;;;;;;;4707892;30;20061;-93
2024/01/19 00:17:14;;;;;;;6.22;0.77;;;;;;;;;;4718127;30;20511;-93
2024/01/19 00:19:40;;;;;;;0.70;0.70;;;;;;;;;;4713706;30;20123;-93
2024/01/19 00:22:06;;;;;;;0.65;0.65;;;;;;;;;;4720430;30;20048;-93
2024/01/19 00:24:32;;;;;;;0.93;0.65;;;;;;;;;;4708873;30;20099;-93
2024/01/19 00:26:59;;;;;;;1.33;0.82;;;;;;;;;;4708734;30;20596;-93
2024/01/19 00:29:25;;;;;;;5.15;0.93;;;;;;;;;;4707336;30;20120;-93
2024/01/19 00:31:51;;;;;;;1.45;0.80;;;;;;;;;;4709693;30;20048;-92
2024/01/19 00:34:17;;;;;;;0.77;0.77;;;;;;;;;;4736353;30;20063;-91
2024/01/19 00:36:43;;;;;;;4.43;1.05;;;;;;;;;;4724602;30;20053;-93
2024/01/19 00:39:09;;;;;;;4.18;2.63;;;;;;;;;;4724158;30;20058;-93
2024/01/19 00:41:36;;;;;;;9.55;2.35;;;;;;;;;;4719601;30;20073;-92
2024/01/19 00:44:03;;;;;;;1.13;0.85;;;;;;;;;;4723360;30;20503;-94
2024/01/19 00:46:29;;;;;;;1.42;0.70;;;;;;;;;;4708434;30;20164;-93
2024/01/19 00:48:58;;;;;;;0.80;0.80;;;;;;;;;;4704864;30;20049;-92
2024/01/19 00:51:24;;;;;;;1.88;0.80;;;;;;;;;;4716687;30;20423;-93
2024/01/19 00:53:51;;;;;;;2.33;1.65;;;;;;;;;;4708309;30;20151;-93
2024/01/19 00:56:17;;;;;;;7.15;1.60;;;;;;;;;;4708344;30;20060;-93
2024/01/19 00:58:45;;;;;;;1.20;0.93;;;;;;;;;;4708841;30;20450;-95
2024/01/19 01:01:11;;;;;;;1.30;0.88;;;;;;;;;;4723155;30;20056;-94
2024/01/19 01:03:38;;;;;;;0.98;0.88;;;;;;;;;;4709454;30;20048;-93
2024/01/19 01:06:05;;;;;;;0.93;0.82;;;;;;;;;;4707987;30;20056;-93
2024/01/19 01:08:33;;;;;;;1.80;0.80;;;;;;;;;;4705802;30;20147;-93
2024/01/19 01:10:59;;;;;;;0.98;0.98;;;;;;;;;;4705752;30;20060;-94
2024/01/19 01:13:25;;;;;;;2.58;0.80;;;;;;;;;;4704727;30;20057;-93
2024/01/19 01:15:52;;;;;;;2.65;1.20;;;;;;;;;;4719404;30;20061;-94
2024/01/19 01:18:19;;;;;;;3.25;0.95;;;;;;;;;;4705362;30;20077;-93
2024/01/19 01:20:45;;;;;;;0.98;0.93;;;;;;;;;;4705618;30;20052;-91
2024/01/19 01:23:12;;;;;;;2.97;0.80;;;;;;;;;;4706417;30;20156;-93
2024/01/19 01:25:38;;;;;;;4.50;1.65;;;;;;;;;;4722109;30;20070;-93
2024/01/19 01:28:04;;;;;;;1.45;1.00;;;;;;;;;;4705534;30;20057;-92
2024/01/19 01:30:30;;;;;;;1.95;0.82;;;;;;;;;;4714138;30;20052;-92
2024/01/19 01:32:56;;;;;;;3.33;1.10;;;;;;;;;;4739404;30;20151;-94
2024/01/19 01:35:22;;;;;;;1.65;1.48;;;;;;;;;;4741037;30;20136;-93
2024/01/19 01:37:48;;;;;;;2.15;1.08;;;;;;;;;;4731927;30;20068;-93
2024/01/19 01:40:15;;;;;;;1.20;1.10;;;;;;;;;;4707360;30;20152;-93
2024/01/19 01:42:41;;;;;;;1.52;0.90;;;;;;;;;;4706134;30;20420;-93
2024/01/19 01:45:07;;;;;;;1.98;1.05;;;;;;;;;;4706156;30;20147;-91
2024/01/19 01:47:34;;;;;;;6.57;1.38;;;;;;;;;;4708116;30;20092;-91
2024/01/19 01:50:00;;;;;;;3.97;1.17;;;;;;;;;;4707622;30;20500;-93
2024/01/19 01:52:26;;;;;;;12.65;1.20;;;;;;;;;;4707617;30;20510;-92
2024/01/19 01:54:53;;;;;;;4.70;1.38;;;;;;;;;;4707732;30;20099;-92
2024/01/19 01:57:20;;;;;;;3.25;1.50;;;;;;;;;;4700442;30;20060;-92
2024/01/19 01:59:50;;;;;;;4.10;1.40;;;;;;;;;;4690428;30;20096;-91
2024/01/19 02:02:16;;;;;;;3.22;1.05;;;;;;;;;;4704779;30;20423;-92
2024/01/19 02:04:42;;;;;;;6.13;1.60;;;;;;;;;;4706135;30;20049;-93
2024/01/19 02:07:09;;;;;;;4.35;2.65;;;;;;;;;;4725950;30;20109;-93
2024/01/19 02:09:35;;;;;;;1.48;1.02;;;;;;;;;;4735690;30;20059;-93
2024/01/19 02:12:02;;;;;;;6.85;1.25;;;;;;;;;;4724743;30;20091;-93
2024/01/19 02:14:28;;;;;;;1.77;1.23;;;;;;;;;;4723137;30;20060;-93
2024/01/19 02:16:54;;;;;;;0.90;0.85;;;;;;;;;;4698084;30;20053;-93
2024/01/19 02:19:23;;;;;;;7.00;2.70;;;;;;;;;;4725747;30;20061;-94
2024/01/19 02:21:49;;;;;;;4.15;0.98;;;;;;;;;;4709493;30;20052;-92
2024/01/19 02:24:18;;;;;;;4.28;1.50;;;;;;;;;;4715778;30;20057;-93
2024/01/19 02:26:44;;;;;;;4.43;2.28;;;;;;;;;;4717841;30;20134;-92
2024/01/19 02:29:11;;;;;;;2.53;1.50;;;;;;;;;;4729837;30;20052;-93
2024/01/19 02:31:37;;;;;;;1.30;1.20;;;;;;;;;;4719286;30;20091;-93
2024/01/19 02:34:03;;;;;;;4.68;2.08;;;;;;;;;;4723064;30;20053;-93
2024/01/19 02:36:29;;;;;;;9.27;1.80;;;;;;;;;;4730382;30;20057;-93
2024/01/19 02:38:55;;;;;;;2.50;1.33;;;;;;;;;;4707925;30;20063;-93
2024/01/19 02:41:21;;;;;;;7.03;1.77;;;;;;;;;;4708865;30;20140;-94
2024/01/19 02:43:47;;;;;;;5.75;1.80;;;;;;;;;;4738811;30;20052;-95
2024/01/19 02:46:18;;;;;;;1.75;1.17;;;;;;;;;;4739770;30;20056;-95
2024/01/19 02:48:44;;;;;;;5.38;1.52;;;;;;;;;;4737379;30;20056;-94
2024/01/19 02:51:11;;;;;;;11.45;2.03;;;;;;;;;;4707325;30;20060;-94
2024/01/19 02:53:37;;;;;;;9.93;1.65;;;;;;;;;;4707572;30;20124;-93
2024/01/19 02:56:04;;;;;;;6.35;1.67;;;;;;;;;;4704393;30;20068;-93
2024/01/19 02:58:31;;;;;;;4.72;1.50;;;;;;;;;;4703932;30;20144;-93
2024/01/19 03:00:57;;;;;;;7.00;1.67;;;;;;;;;;4703966;30;20064;-93
2024/01/19 03:03:23;;;;;;;9.20;1.35;;;;;;;;;;4704247;30;20105;-93
2024/01/19 03:05:49;;;;;;;4.03;1.45;;;;;;;;;;4708699;30;20072;-92
2024/01/19 03:08:15;;;;;;;5.55;1.30;;;;;;;;;;4706510;30;20056;-93
2024/01/19 03:10:41;;;;;;;3.53;1.50;;;;;;;;;;4706218;30;20495;-92
2024/01/19 03:13:08;;;;;;;4.10;1.67;;;;;;;;;;4706240;30;20137;-93
2024/01/19 03:15:34;;;;;;;4.55;1.23;;;;;;;;;;4718813;30;20067;-91
2024/01/19 03:18:00;;;;;;;2.75;1.27;;;;;;;;;;4737395;30;20055;-92
2024/01/19 03:20:26;;;;;;;8.98;1.63;;;;;;;;;;4737643;30;20514;-92
2024/01/19 03:22:58;;;;;;;7.60;1.70;;;;;;;;;;4759964;24;20134;-92
2024/01/19 03:25:24;;;;;;;3.10;1.23;;;;;;;;;;4747677;30;20055;-92
2024/01/19 03:27:50;;;;;;;5.50;1.58;;;;;;;;;;4732414;30;20052;-93
2024/01/19 03:30:17;;;;;;;1.83;1.33;;;;;;;;;;4738042;30;20063;-94
2024/01/19 03:32:43;;;;;;;3.72;1.35;;;;;;;;;;4738052;30;20092;-94
2024/01/19 03:35:09;;;;;;;3.92;1.48;;;;;;;;;;4738799;30;20121;-94
2024/01/19 03:37:35;;;;;;;8.00;1.50;;;;;;;;;;4760322;30;20055;-93
2024/01/19 03:40:04;;;;;;;6.43;1.70;;;;;;;;;;4758708;30;20146;-93
2024/01/19 03:42:30;;;;;;;5.38;1.30;;;;;;;;;;4739427;30;20044;-93
2024/01/19 03:44:56;;;;;;;3.40;1.23;;;;;;;;;;4740623;30;20055;-94
2024/01/19 03:47:23;;;;;;;8.07;1.85;;;;;;;;;;4754407;30;20052;-92
2024/01/19 03:49:49;;;;;;;2.67;1.08;;;;;;;;;;4733019;30;20070;-94
2024/01/19 03:52:17;;;;;;;1.45;0.80;;;;;;;;;;4741799;30;20058;-93
2024/01/19 03:54:44;;;;;;;3.45;1.23;;;;;;;;;;4740579;30;20500;-93
2024/01/19 03:57:10;;;;;;;7.85;1.65;;;;;;;;;;4739608;30;20094;-93
2024/01/19 03:59:36;;;;;;;9.50;3.05;;;;;;;;;;4722982;30;20115;-94
2024/01/19 04:02:04;;;;;;;1.80;1.02;;;;;;;;;;4752400;30;20428;-93
2024/01/19 04:04:30;;;;;;;7.25;1.35;;;;;;;;;;4754483;30;20055;-91
2024/01/19 04:06:56;;;;;;;5.18;1.67;;;;;;;;;;4758529;30;20055;-92
2024/01/19 04:09:23;;;;;;;3.67;1.70;;;;;;;;;;4756679;30;20166;-90
2024/01/19 04:11:51;;;;;;;4.68;1.58;;;;;;;;;;4758857;30;20062;-93
2024/01/19 04:14:17;;;;;;;8.52;1.90;;;;;;;;;;4754698;30;20055;-90
2024/01/19 04:16:46;;;;;;;5.03;1.50;;;;;;;;;;4754204;30;20513;-92
2024/01/19 04:19:12;;;;;;;3.40;1.40;;;;;;;;;;4751787;30;20063;-92
2024/01/19 04:21:38;;;;;;;12.18;2.40;;;;;;;;;;4751459;30;20121;-91
2024/01/19 04:24:05;;;;;;;10.25;3.05;;;;;;;;;;4722493;30;20063;-92
2024/01/19 04:26:31;;;;;;;8.20;1.63;;;;;;;;;;4767010;30;20047;-92
2024/01/19 04:28:57;;;;;;;3.45;1.35;;;;;;;;;;4756983;30;20059;-91
2024/01/19 04:31:23;;;;;;;7.30;1.98;;;;;;;;;;4741991;30;20075;-92
2024/01/19 04:33:49;;;;;;;11.40;1.55;;;;;;;;;;4748350;30;20063;-92
2024/01/19 04:36:17;;;;;;;9.52;1.90;;;;;;;;;;4739828;30;20055;-92
2024/01/19 04:38:44;;;;;;;4.50;1.85;;;;;;;;;;4754422;30;20056;-91
2024/01/19 04:41:10;;;;;;;7.30;1.67;;;;;;;;;;4754572;30;20063;-92
2024/01/19 04:43:36;;;;;;;9.98;3.20;;;;;;;;;;4767583;30;20059;-92
2024/01/19 04:46:02;;;;;;;2.55;1.55;;;;;;;;;;4754334;30;20406;-92
2024/01/19 04:48:28;;;;;;;4.00;1.27;;;;;;;;;;4739495;30;20087;-92
2024/01/19 04:50:54;;;;;;;6.28;1.55;;;;;;;;;;4754194;30;20055;-92
2024/01/19 04:53:21;;;;;;;8.32;2.10;;;;;;;;;;4754277;30;20060;-92
2024/01/19 04:55:47;;;;;;;6.22;1.35;;;;;;;;;;4754026;30;20056;-92
2024/01/19 04:58:13;;;;;;;5.65;1.80;;;;;;;;;;4739396;30;20068;-92
2024/01/19 05:00:39;;;;;;;5.38;2.28;;;;;;;;;;4743907;30;20497;-91
2024/01/19 05:03:05;;;;;;;3.30;2.00;;;;;;;;;;4744987;30;20181;-91
2024/01/19 05:05:31;;;;;;;2.63;1.02;;;;;;;;;;4741715;30;20044;-90
2024/01/19 05:07:59;;;;;;;2.22;1.40;;;;;;;;;;4741408;30;20056;-92
2024/01/19 05:10:25;;;;;;;4.30;1.35;;;;;;;;;;4744419;30;20059;-91
2024/01/19 05:12:51;;;;;;;10.98;1.30;;;;;;;;;;4735711;30;20059;-90
2024/01/19 05:15:17;;;;;;;5.93;1.08;;;;;;;;;;4737175;30;20147;-92
2024/01/19 05:17:43;;;;;;;5.15;1.17;;;;;;;;;;4743466;30;20426;-92
2024/01/19 05:20:09;;;;;;;7.85;2.67;;;;;;;;;;4737847;30;20056;-91
2024/01/19 05:22:36;;;;;;;3.35;1.30;;;;;;;;;;4721194;30;20518;-93
2024/01/19 05:25:03;;;;;;;5.60;1.85;;;;;;;;;;4741525;30;20134;-91
2024/01/19 05:27:29;;;;;;;5.82;1.30;;;;;;;;;;4721938;30;20147;-91
2024/01/19 05:29:55;;;;;;;6.22;1.17;;;;;;;;;;4726188;30;20525;-91
2024/01/19 05:32:21;;;;;;;8.18;1.60;;;;;;;;;;4739338;30;20109;-91
2024/01/19 05:34:47;;;;;;;5.40;1.30;;;;;;;;;;4746159;30;20064;-91
2024/01/19 05:37:13;;;;;;;4.70;1.58;;;;;;;;;;4735925;30;20080;-92
2024/01/19 05:39:39;;;;;;;4.65;1.25;;;;;;;;;;4735474;30;20064;-91
2024/01/19 05:42:05;;;;;;;2.78;1.52;;;;;;;;;;4736232;30;20067;-91
2024/01/19 05:44:32;;;;;;;8.50;2.00;;;;;;;;;;4736675;30;20060;-90
2024/01/19 05:46:58;;;;;;;10.65;1.50;;;;;;;;;;4738402;30;20052;-90
2024/01/19 05:49:24;;;;;;;3.35;1.60;;;;;;;;;;4750347;30;20059;-92
2024/01/19 05:51:57;;;;;;;6.20;1.90;;;;;;;;;;4742490;30;20115;-94
2024/01/19 05:54:24;;;;;;;3.92;1.90;;;;;;;;;;4753667;30;20672;-92
2024/01/19 05:56:50;;;;;;;4.35;1.63;;;;;;;;;;4753187;30;20517;-91
2024/01/19 05:59:16;;;;;;;2.35;1.45;;;;;;;;;;4735606;30;20062;-90
2024/01/19 06:01:42;;;;;;;3.70;1.45;;;;;;;;;;4735971;30;20057;-92
2024/01/19 06:04:08;;;;;;;2.90;1.60;;;;;;;;;;4743784;30;20067;-92
2024/01/19 06:09:18;;;;;;;2.47;1.40;;;;;;;;;;4781140;24;20078;-93
2024/01/19 06:11:47;;;;;;;2.90;1.35;;;;;;;;;;4756849;30;20510;-91
2024/01/19 06:14:14;;;;;;;3.17;1.02;;;;;;;;;;4756950;30;20501;-93
2024/01/19 06:16:40;;;;;;;3.38;1.50;;;;;;;;;;4745385;30;20146;-92
2024/01/19 06:19:06;;;;;;;2.70;1.13;;;;;;;;;;4757696;30;20083;-93
2024/01/19 06:21:32;;;;;;;5.13;1.30;;;;;;;;;;4757215;30;20406;-94
2024/01/19 06:24:01;;;;;;;3.45;1.20;;;;;;;;;;4750970;30;20545;-94
2024/01/19 06:26:32;;;;;;;5.40;1.60;;;;;;;;;;4754458;30;20141;-94
2024/01/19 06:28:58;;;;;;;1.58;1.15;;;;;;;;;;4753602;30;20669;-94
2024/01/19 06:31:25;;;;;;;3.80;1.38;;;;;;;;;;4768546;30;20495;-93
2024/01/19 06:33:51;;;;;;;2.42;1.38;;;;;;;;;;4768423;30;20056;-94
2024/01/19 06:36:17;;;;;;;1.65;1.40;;;;;;;;;;4739197;30;20060;-94
2024/01/19 06:38:43;;;;;;;6.88;1.65;;;;;;;;;;4738893;30;20059;-93
2024/01/19 06:41:09;;;;;;;10.15;1.80;;;;;;;;;;4769674;30;20117;-94
2024/01/19 06:43:36;;;;;;;3.17;1.45;;;;;;;;;;4769804;30;20044;-93
2024/01/19 06:46:02;;;;;;;6.60;1.80;;;;;;;;;;4754218;30;20056;-92
2024/01/19 06:48:28;;;;;;;7.60;1.88;;;;;;;;;;4753694;30;20056;-94
2024/01/19 06:50:54;;;;;;;5.05;1.95;;;;;;;;;;4753580;30;20064;-93
2024/01/19 06:53:20;;;;;;;3.58;1.65;;;;;;;;;;4753975;30;20469;-93
2024/01/19 06:55:46;;;;;;;3.78;1.60;;;;;;;;;;4739354;30;20060;-94
2024/01/19 06:58:12;;;;;;;7.53;1.90;;;;;;;;;;4768710;30;20055;-95
2024/01/19 07:00:41;;;;;;;9.85;2.20;;;;;;;;;;4769148;30;20063;-94
2024/01/19 07:03:07;;;;;;;5.82;1.40;;;;;;;;;;4753921;30;20525;-94
2024/01/19 07:05:33;;;;;;;4.72;1.95;;;;;;;;;;4753747;30;20068;-93
2024/01/19 07:08:02;;;;;;;6.38;1.80;;;;;;;;;;4753171;30;20502;-93
2024/01/19 07:10:28;;;;;;;8.60;2.25;;;;;;;;;;4739224;30;20067;-93
2024/01/19 07:12:57;;;;;;;4.40;1.80;;;;;;;;;;4753289;30;20497;-95
2024/01/19 07:15:26;;;;;;;3.00;1.50;;;;;;;;;;4738684;30;20051;-92
2024/01/19 07:17:52;;;;;;;10.98;2.42;;;;;;;;;;4753777;30;20052;-93
2024/01/19 07:20:18;;;;;;;9.60;1.85;;;;;;;;;;4753897;30;20057;-95
2024/01/19 07:22:44;;;;;;;7.50;2.95;;;;;;;;;;4739066;30;20514;-93
2024/01/19 07:25:11;;;;;;;4.00;1.90;;;;;;;;;;4753339;30;20075;-93
2024/01/19 07:27:37;;;;;;;12.60;2.47;;;;;;;;;;4753190;30;20502;-95
2024/01/19 07:30:03;;;;;;;4.60;1.70;;;;;;;;;;4739382;30;20438;-94
2024/01/19 07:32:29;;;;;;;3.25;1.60;;;;;;;;;;4738408;30;20052;-95
2024/01/19 07:34:56;;;;;;;9.02;2.30;;;;;;;;;;4738396;30;20071;-93
2024/01/19 07:37:22;;;;;;;10.15;2.08;;;;;;;;;;4738581;30;20063;-93
2024/01/19 07:39:50;;;;;;;8.40;1.98;;;;;;;;;;4739043;30;20055;-95
2024/01/19 07:42:25;;;;;;;4.60;1.75;;;;;;;;;;4739582;30;20060;-95
2024/01/19 07:44:54;;;;;;;4.72;1.52;;;;;;;;;;4738426;30;20474;-94
2024/01/19 07:47:20;;;;;;;10.27;2.80;;;;;;;;;;4738195;30;20064;-94
2024/01/19 07:53:18;;;;;;;;;;;;;;;;;;;;;
2024/01/19 07:55:48;;;;;;;5.18;2.10;;;;;;;;;;4759497;30;20051;-94
2024/01/19 07:58:14;;;;;;;6.18;2.03;;;;;;;;;;4755815;30;20060;-95
2024/01/19 08:14:30;;;;;;;13.98;4.78;;;;;;;;;;4794099;30;20046;-93
2024/01/19 08:16:56;;;;;;;12.52;3.97;;;;;;;;;;4755806;30;20054;-94
2024/01/19 08:19:22;;;;;;;12.80;2.15;;;;;;;;;;4760928;30;20101;-94
2024/01/19 08:21:48;;;;;;;10.65;1.98;;;;;;;;;;4770195;30;20480;-93
2024/01/19 08:24:14;;;;;;;10.25;2.75;;;;;;;;;;4770181;29;20063;-92
2024/01/19 08:26:40;;;;;;;8.52;2.13;;;;;;;;;;4766545;30;20066;-93
2024/01/19 08:29:09;;;;;;;7.22;2.08;;;;;;;;;;4767759;30;20048;-93
2024/01/19 08:31:35;;;;;;;7.72;2.10;;;;;;;;;;4751620;30;20079;-93
2024/01/19 08:34:01;;;;;;;16.02;3.05;;;;;;;;;;4767048;30;20046;-94
2024/01/19 08:36:28;;;;;;;10.80;2.42;;;;;;;;;;4768629;30;20055;-93
2024/01/19 08:38:59;;;;;;;7.63;2.22;;;;;;;;;;4769425;30;20047;-94
2024/01/19 08:44:08;;;;;;;20.10;3.20;;;;;;;;;;4765648;24;20106;-91
2024/01/19 08:46:47;;;;;;;9.95;2.90;;;;;;;;;;4762500;30;20063;-92
2024/01/19 08:49:14;;;;;;;8.07;2.42;;;;;;;;;;4767130;30;20070;-93
2024/01/19 08:51:40;;;;;;;5.20;1.90;;;;;;;;;;4765486;30;20060;-93
2024/01/19 08:54:13;;;;;;;8.75;3.05;;;;;;;;;;4753913;30;20114;-92
2024/01/19 08:56:45;;;;;;;13.48;3.03;;;;;;;;;;4755010;30;20052;-93
2024/01/19 08:59:13;;;;;;;4.82;2.20;;;;;;;;;;4782305;29;20086;-92
2024/01/19 09:01:39;;;;;;;10.52;2.60;;;;;;;;;;4766106;30;20055;-93
2024/01/19 09:04:06;;;;;;;7.47;1.90;;;;;;;;;;4764180;24;20164;-93
2024/01/19 09:13:37;;;;;;;10.50;2.55;;;;;;;;;;4765539;29;20042;-93
2024/01/19 09:16:22;;;;;;;8.05;2.20;;;;;;;;;;4713879;30;20057;-93
2024/01/19 09:18:50;;;;;;;9.05;2.55;;;;;;;;;;4711040;30;20059;-93
2024/01/19 09:21:17;;;;;;;8.73;2.83;;;;;;;;;;4711798;30;20049;-93
2024/01/19 09:23:44;;;;;;;8.32;2.58;;;;;;;;;;4699818;30;20912;-91
2024/01/19 09:26:21;;;;;;;14.20;2.80;;;;;;;;;;4700428;30;20056;-93
2024/01/19 09:28:51;;;;;;;12.70;2.53;;;;;;;;;;4712510;30;20622;-93
2024/01/19 09:31:19;;;;;;;13.55;2.53;;;;;;;;;;4710657;30;20060;-93
2024/01/19 09:33:48;;;;;;;8.45;2.38;;;;;;;;;;4706658;30;20438;-94
2024/01/19 09:36:17;;;;;;;12.30;5.20;;;;;;;;;;4706381;30;20570;-93
2024/01/19 09:39:06;;;;;;;7.20;2.42;;;;;;;;;;4708766;30;20835;-92
2024/01/19 09:41:41;;;;;;;8.25;3.08;;;;;;;;;;4694998;30;20119;-92
2024/01/19 09:44:10;;;;;;;9.57;2.53;;;;;;;;;;4681475;30;20053;-93
2024/01/19 09:46:44;;;;;;;9.57;3.05;;;;;;;;;;4688489;30;20080;-92
2024/01/19 09:49:26;;;;;;;14.68;2.97;;;;;;;;;;4750483;30;20048;-93
2024/01/19 09:52:10;;;;;;;9.82;2.40;;;;;;;;;;4733956;30;20098;-92
2024/01/19 09:54:36;;;;;;;11.55;2.42;;;;;;;;;;4737417;30;20420;-93
2024/01/19 09:57:03;;;;;;;8.50;2.28;;;;;;;;;;4735238;30;20064;-92
2024/01/19 09:59:30;;;;;;;7.05;2.60;;;;;;;;;;4735012;30;20059;-94
2024/01/19 10:01:57;;;;;;;13.85;2.60;;;;;;;;;;4748807;30;20087;-93
2024/01/19 10:04:24;;;;;;;15.75;3.03;;;;;;;;;;4739657;30;20051;-93
2024/01/19 10:06:51;;;;;;;4.72;2.58;;;;;;;;;;4768379;30;20131;-95
2024/01/19 10:09:26;;;;;;;5.85;2.42;;;;;;;;;;4768724;30;20125;-95
2024/01/19 10:11:54;;;;;;;9.90;2.85;;;;;;;;;;4766081;30;20522;-94
2024/01/19 10:14:25;;;;;;;7.95;2.30;;;;;;;;;;4765497;30;20441;-94
2024/01/19 10:16:54;;;;;;;9.43;2.35;;;;;;;;;;4750781;30;20063;-93
2024/01/19 10:19:21;;;;;;;9.52;2.42;;;;;;;;;;4768208;30;20138;-96
2024/01/19 10:21:53;;;;;;;12.88;2.65;;;;;;;;;;4768335;30;20087;-96
2024/01/19 10:24:36;;;;;;;;;;;;;;;;;;;;;
2024/01/19 10:31:08;;;;;;;5.28;2.20;;;;;;;;;;4763541;30;20101;-95
2024/01/19 10:33:57;;;;;;;;;;;;;;;;;;;;;
2024/01/19 10:36:59;;;;;;;;;;;;;;;;;;;;;
2024/01/19 14:53:15;;;;;;;11.35;2.83;;;;;;;;;;4756574;30;20087;-91
2024/01/19 14:56:15;;;;;;;7.55;3.17;;;;;;;;;;4762447;30;20638;-92
2024/01/19 14:59:24;;;;;;;4.38;2.10;;;;;;;;;;4740977;30;20139;-91
2024/01/19 15:01:55;;;;;;;7.55;2.78;;;;;;;;;;4725678;30;20067;-90
2024/01/19 15:04:21;;;;;;;2.75;2.17;;;;;;;;;;4741639;30;20056;-90
2024/01/19 15:06:47;;;;;;;6.05;2.60;;;;;;;;;;4743461;30;20486;-91
2024/01/19 15:09:13;;;;;;;5.10;2.17;;;;;;;;;;4756183;30;20051;-90
2024/01/19 15:11:39;;;;;;;5.28;2.58;;;;;;;;;;4755332;30;20133;-92
2024/01/19 15:14:05;;;;;;;3.75;2.50;;;;;;;;;;4759201;30;20159;-91
2024/01/19 15:16:32;;;;;;;7.50;2.13;;;;;;;;;;4743492;30;20067;-91
2024/01/19 15:18:59;;;;;;;6.35;2.55;;;;;;;;;;4744285;30;20067;-91
2024/01/19 15:21:26;;;;;;;3.47;2.35;;;;;;;;;;4741261;30;20083;-91
2024/01/19 15:23:52;;;;;;;10.55;3.13;;;;;;;;;;4750334;30;20095;-89
2024/01/19 15:26:18;;;;;;;5.55;3.03;;;;;;;;;;4743349;30;20059;-90
2024/01/19 15:28:44;;;;;;;8.57;3.33;;;;;;;;;;4743909;30;20151;-92
2024/01/19 15:31:10;;;;;;;3.65;2.00;;;;;;;;;;4738548;30;20067;-91
2024/01/19 15:33:36;;;;;;;8.65;2.10;;;;;;;;;;4741270;30;20086;-92
2024/01/19 15:36:08;;;;;;;9.60;2.40;;;;;;;;;;4756070;30;21382;-91
2024/01/19 15:38:34;;;;;;;14.32;1.77;;;;;;;;;;4743036;30;20098;-91
2024/01/19 15:41:00;;;;;;;7.10;2.70;;;;;;;;;;4749616;30;20063;-92
2024/01/19 15:43:26;;;;;;;7.13;2.53;;;;;;;;;;4740241;30;20078;-92
2024/01/19 15:45:53;;;;;;;8.77;3.20;;;;;;;;;;4742651;30;20052;-91
2024/01/19 15:48:19;;;;;;;4.80;2.78;;;;;;;;;;4746693;30;20063;-91
2024/01/19 15:50:48;;;;;;;5.60;2.97;;;;;;;;;;4748708;30;20062;-92
2024/01/19 15:53:15;;;;;;;8.82;2.70;;;;;;;;;;4761902;29;20090;-91
2024/01/19 15:55:41;;;;;;;4.60;2.20;;;;;;;;;;4747572;30;20053;-91
2024/01/19 15:58:07;;;;;;;8.95;2.78;;;;;;;;;;4767712;30;20110;-91
2024/01/19 16:00:33;;;;;;;7.68;2.40;;;;;;;;;;4769768;30;20063;-92
2024/01/19 16:02:59;;;;;;;3.17;2.08;;;;;;;;;;4752392;30;20043;-93
2024/01/19 16:05:26;;;;;;;5.60;2.25;;;;;;;;;;4764419;30;20059;-91
2024/01/19 16:07:52;;;;;;;5.60;2.00;;;;;;;;;;4742854;30;20050;-92
2024/01/19 16:10:18;;;;;;;6.00;3.00;;;;;;;;;;4751748;30;20055;-92
2024/01/19 16:12:45;;;;;;;11.65;4.10;;;;;;;;;;4759451;30;20088;-92
2024/01/19 16:15:12;;;;;;;11.65;2.33;;;;;;;;;;4750614;30;20074;-92
2024/01/19 16:17:38;;;;;;;6.13;1.88;;;;;;;;;;4777693;29;20053;-92
2024/01/19 16:20:08;;;;;;;3.63;2.70;;;;;;;;;;4746728;30;20062;-92
2024/01/19 16:22:34;;;;;;;1.73;1.50;;;;;;;;;;4745129;29;20792;-93
2024/01/19 16:25:02;;;;;;;4.72;1.58;;;;;;;;;;4747603;30;20058;-90
2024/01/19 16:27:29;;;;;;;5.70;1.60;;;;;;;;;;4748202;30;20063;-92
2024/01/19 16:29:55;;;;;;;3.47;1.45;;;;;;;;;;4747535;30;20055;-93
2024/01/19 16:32:21;;;;;;;8.10;2.13;;;;;;;;;;4747864;30;20054;-91
2024/01/19 16:34:47;;;;;;;5.32;1.80;;;;;;;;;;4748057;30;20067;-93
2024/01/19 16:37:13;;;;;;;8.27;1.90;;;;;;;;;;4744828;30;20521;-92
2024/01/19 16:39:41;;;;;;;3.55;1.80;;;;;;;;;;4746524;30;20058;-91
2024/01/19 16:42:09;;;;;;;5.93;1.83;;;;;;;;;;4736238;30;20431;-92
2024/01/19 16:44:35;;;;;;;6.35;1.70;;;;;;;;;;4748366;30;20059;-92
2024/01/19 16:47:01;;;;;;;4.82;2.00;;;;;;;;;;4760542;29;20062;-91
2024/01/19 16:49:27;;;;;;;5.63;1.70;;;;;;;;;;4759673;30;20098;-92
2024/01/19 16:51:54;;;;;;;1.90;1.33;;;;;;;;;;4746534;30;20059;-92
2024/01/19 16:54:20;;;;;;;6.63;2.17;;;;;;;;;;4743892;30;20066;-92
2024/01/19 16:56:47;;;;;;;10.63;2.50;;;;;;;;;;4746410;30;20067;-92
2024/01/19 16:59:14;;;;;;;9.02;2.17;;;;;;;;;;4745008;29;20737;-91
2024/01/19 17:01:40;;;;;;;6.55;1.52;;;;;;;;;;4742847;30;20055;-92
2024/01/19 17:04:07;;;;;;;5.30;1.80;;;;;;;;;;4746474;30;20047;-92
2024/01/19 17:06:33;;;;;;;4.00;2.10;;;;;;;;;;4763650;30;20509;-93
2024/01/19 17:08:59;;;;;;;5.13;2.30;;;;;;;;;;4777859;29;20087;-90
2024/01/19 17:11:27;;;;;;;6.40;1.70;;;;;;;;;;4744554;30;20086;-91
2024/01/19 17:13:54;;;;;;;4.28;1.70;;;;;;;;;;4760145;30;20120;-91
2024/01/19 17:16:20;;;;;;;4.18;2.10;;;;;;;;;;4758677;30;20533;-92
2024/01/19 17:18:46;;;;;;;3.63;1.92;;;;;;;;;;4765838;30;20069;-93
2024/01/19 17:21:12;;;;;;;9.82;2.22;;;;;;;;;;4771034;30;20059;-92
2024/01/19 17:23:39;;;;;;;6.35;1.92;;;;;;;;;;4763643;30;20064;-91
2024/01/19 17:26:05;;;;;;;5.68;1.80;;;;;;;;;;4745989;30;20051;-92
2024/01/19 17:28:31;;;;;;;8.40;2.25;;;;;;;;;;4754055;30;20052;-92
2024/01/19 17:30:57;;;;;;;6.97;1.92;;;;;;;;;;4742954;30;20086;-91
2024/01/19 17:33:23;;;;;;;9.25;2.10;;;;;;;;;;4756329;29;20082;-92
2024/01/19 17:35:50;;;;;;;4.18;1.80;;;;;;;;;;4742137;30;20063;-91
2024/01/19 17:38:16;;;;;;;7.30;3.30;;;;;;;;;;4756249;30;20097;-92
2024/01/19 17:40:45;;;;;;;59.50;33.35;;;;;;;;;;4754218;30;20175;-92
2024/01/19 17:43:11;;;;;;;3.28;2.58;;;;;;;;;;4767531;29;20051;-92
2024/01/19 17:45:37;;;;;;;11.27;2.08;;;;;;;;;;4768513;30;20060;-92
2024/01/19 17:48:04;;;;;;;1.95;1.75;;;;;;;;;;4769171;29;20059;-93
2024/01/19 17:50:30;;;;;;;8.98;2.30;;;;;;;;;;4751960;30;20095;-93
2024/01/19 17:52:56;;;;;;;6.78;2.97;;;;;;;;;;4755970;30;20416;-92
2024/01/19 17:55:22;;;;;;;4.95;2.33;;;;;;;;;;4774879;30;20051;-92
2024/01/19 17:57:49;;;;;;;5.00;2.35;;;;;;;;;;4757049;30;20103;-93
2024/01/19 18:00:16;;;;;;;2.75;2.05;;;;;;;;;;4756935;30;20095;-91
2024/01/19 18:02:42;;;;;;;5.72;2.33;;;;;;;;;;4771246;30;20073;-93
2024/01/19 18:05:08;;;;;;;5.45;1.88;;;;;;;;;;4742248;30;20651;-93
2024/01/19 18:07:34;;;;;;;7.75;2.92;;;;;;;;;;4753271;29;20059;-92
2024/01/19 18:10:03;;;;;;;2.90;1.80;;;;;;;;;;4778163;30;20501;-93
2024/01/19 18:12:29;;;;;;;5.03;2.10;;;;;;;;;;4756392;29;20055;-93
2024/01/19 18:14:55;;;;;;;4.05;2.10;;;;;;;;;;4743997;30;20052;-93
2024/01/19 18:17:21;;;;;;;4.07;2.13;;;;;;;;;;4774579;30;20071;-91
2024/01/19 18:19:47;;;;;;;7.15;2.13;;;;;;;;;;4743949;30;20058;-92
2024/01/19 18:22:18;;;;;;;3.53;2.90;;;;;;;;;;4760054;29;20066;-91
2024/01/19 18:24:45;;;;;;;5.95;2.55;;;;;;;;;;4765220;30;20056;-92
2024/01/19 18:27:11;;;;;;;5.13;2.17;;;;;;;;;;4771973;30;20582;-92
2024/01/19 18:29:37;;;;;;;4.53;2.00;;;;;;;;;;4759215;30;20098;-93
2024/01/19 18:32:03;;;;;;;10.98;2.40;;;;;;;;;;4758933;30;21388;-91
2024/01/19 18:34:29;;;;;;;6.93;2.30;;;;;;;;;;4759343;30;20098;-93
2024/01/19 18:36:55;;;;;;;4.80;2.42;;;;;;;;;;4758333;30;20479;-92
2024/01/19 18:39:22;;;;;;;8.07;2.10;;;;;;;;;;4758916;30;20158;-93
2024/01/19 18:41:49;;;;;;;5.85;1.85;;;;;;;;;;4759143;30;20048;-91
2024/01/19 18:44:17;;;;;;;4.50;2.33;;;;;;;;;;4773114;30;20085;-92
2024/01/19 18:46:48;;;;;;;11.45;5.75;;;;;;;;;;4772177;29;20421;-91
2024/01/19 18:49:14;;;;;;;5.72;3.60;;;;;;;;;;4772855;30;20083;-93
2024/01/19 18:51:41;;;;;;;6.95;3.95;;;;;;;;;;4781725;30;20410;-93
2024/01/19 18:54:24;;;;;;;6.22;2.80;;;;;;;;;;4772030;30;20052;-92
2024/01/19 19:13:23;;;;;;;8.95;2.35;;;;;;;;;;4780785;24;20060;-92
2024/01/19 19:20:15;;;;;;;21.95;5.05;;;;;;;;;;4767505;30;20052;-92
2024/01/19 19:23:10;;;;;;;5.80;2.10;;;;;;;;;;4737612;30;20415;-91
2024/01/19 19:28:43;;;;;;;;;;;;;;;;;;;;;
2024/01/19 19:37:49;;;;;;;10.93;2.80;;;;;;;;;;4698700;30;20046;-92
2024/01/19 19:40:59;;;;;;;9.88;4.30;;;;;;;;;;4695382;30;20124;-91
2024/01/19 19:53:50;;;;;;;;;;;;;;;;;;;;;
2024/01/19 20:00:44;;;;;;;7.78;3.67;;;;;;;;;;4656665;30;20105;-91
2024/01/19 20:03:47;;;;;;;6.97;2.80;;;;;;;;;;4636452;30;20070;-93
2024/01/19 20:16:05;;;;;;;6.65;2.17;;;;;;;;;;4985267;24;20146;-91
2024/01/19 20:19:29;;;;;;;4.22;2.42;;;2.70;99.90;;;;;;4971300;24;20051;-91
2024/01/19 21:50:27;;;;;;;3.63;2.33;;;2.30;99.90;;;;;;4309236;24;20331;-91
